Time;durP1;ratioP1;P1;durP2;ratioP2;P2;SDS_P1;SDS_P2;PMS_P1;PMS_P2;Temp;Humidity;BMP_temperature;BMP_pressure;BME280_temperature;BME280_humidity;BME280_pressure;Samples;Min_cycle;Max_cycle;Signal;HPM_P1;HPM_P2
2022/09/25 00:01:34;;;;;;;16.30;8.40;;;;;;;12.99;100.00;100784.50;5043328;28;20466;-83
2022/09/25 00:04:01;;;;;;;11.60;7.03;;;;;;;13.05;100.00;100791.41;5041808;28;20470;-82
2022/09/25 00:06:28;;;;;;;16.37;7.67;;;;;;;13.06;100.00;100784.88;5026236;28;20479;-83
2022/09/25 00:08:55;;;;;;;13.23;6.77;;;;;;;13.09;100.00;100782.31;5033898;28;20865;-83
2022/09/25 00:11:23;;;;;;;12.20;7.47;;;;;;;13.03;100.00;100788.19;5034509;28;20455;-83
2022/09/25 00:13:52;;;;;;;11.90;6.83;;;;;;;13.02;100.00;100773.00;5036796;28;20459;-83
2022/09/25 00:16:20;;;;;;;10.43;7.13;;;;;;;13.05;100.00;100775.09;5035969;28;20833;-82
2022/09/25 00:21:32;;;;;;;13.27;8.17;;;;;;;13.02;100.00;100773.81;5039951;28;20438;-83
2022/09/25 00:23:59;;;;;;;15.73;8.20;;;;;;;13.06;100.00;100761.19;5035816;28;20485;-82
2022/09/25 00:26:27;;;;;;;11.90;6.83;;;;;;;13.06;100.00;100763.91;5031967;28;20962;-83
2022/09/25 00:28:55;;;;;;;10.73;6.30;;;;;;;13.02;100.00;100760.22;5034709;28;20525;-83
2022/09/25 00:31:24;;;;;;;13.47;7.40;;;;;;;13.05;100.00;100758.75;5035075;28;20467;-83
2022/09/25 00:33:50;;;;;;;14.77;7.63;;;;;;;13.02;100.00;100760.22;5016514;28;20902;-82
2022/09/25 00:36:17;;;;;;;13.10;7.50;;;;;;;13.00;100.00;100754.28;5016485;28;20958;-82
2022/09/25 00:38:47;;;;;;;12.87;7.23;;;;;;;12.99;100.00;100760.03;5017330;28;20448;-81
2022/09/25 00:41:16;;;;;;;13.73;7.13;;;;;;;12.91;100.00;100758.06;5049392;28;20862;-82
2022/09/25 00:43:44;;;;;;;13.27;8.03;;;;;;;12.92;100.00;100762.38;5019353;28;20996;-83
2022/09/25 00:46:16;;;;;;;14.57;8.43;;;;;;;12.91;100.00;100758.06;5032597;28;20487;-82
2022/09/25 00:48:50;;;;;;;11.63;6.57;;;;;;;12.93;100.00;100755.84;5035767;28;20451;-83
2022/09/25 00:51:20;;;;;;;16.30;8.23;;;;;;;12.92;100.00;100759.66;5037743;28;20452;-83
2022/09/25 00:53:47;;;;;;;9.17;5.93;;;;;;;12.92;100.00;100763.19;5036391;28;20451;-82
2022/09/25 00:56:14;;;;;;;12.10;6.87;;;;;;;12.91;100.00;100763.50;5036730;28;20474;-82
2022/09/25 00:58:42;;;;;;;18.30;8.97;;;;;;;12.86;100.00;100757.09;5028483;28;20447;-82
2022/09/25 01:01:09;;;;;;;13.73;7.67;;;;;;;12.87;100.00;100763.31;5041817;28;20493;-82
2022/09/25 01:03:40;;;;;;;13.53;7.30;;;;;;;12.83;100.00;100757.69;5039896;28;20455;-83
2022/09/25 01:06:07;;;;;;;13.10;7.80;;;;;;;12.81;100.00;100753.69;5028658;28;20486;-82
2022/09/25 01:08:35;;;;;;;12.03;7.27;;;;;;;12.84;100.00;100759.31;5041981;28;20805;-82
2022/09/25 01:11:01;;;;;;;12.93;7.80;;;;;;;12.85;100.00;100749.25;5039452;28;20478;-82
2022/09/25 01:13:29;;;;;;;13.50;7.73;;;;;;;12.81;100.00;100756.41;5034982;28;20439;-82
2022/09/25 01:16:04;;;;;;;11.33;6.33;;;;;;;12.83;100.00;100749.53;5022940;28;20977;-82
2022/09/25 01:18:42;;;;;;;15.30;7.00;;;;;;;12.84;100.00;100753.88;5033529;28;20442;-82
2022/09/25 01:21:32;;;;;;;13.00;6.63;;;;;;;12.83;100.00;100752.25;5034743;28;20478;-82
2022/09/25 01:24:22;;;;;;;11.93;7.10;;;;;;;12.83;100.00;100744.09;5033635;28;20961;-82
2022/09/25 01:27:21;;;;;;;14.20;6.70;;;;;;;12.82;100.00;100744.44;5034056;28;20490;-82
2022/09/25 01:29:58;;;;;;;11.37;5.70;;;;;;;12.88;100.00;100744.00;5018824;28;20490;-83
2022/09/25 01:32:32;;;;;;;11.07;6.77;;;;;;;12.84;100.00;100736.78;5019159;28;20416;-82
2022/09/25 01:35:02;;;;;;;11.50;6.43;;;;;;;12.83;100.00;100735.94;5039716;28;20458;-83
2022/09/25 01:37:38;;;;;;;11.93;6.70;;;;;;;12.75;100.00;100736.72;5028986;28;20448;-83
2022/09/25 01:40:10;;;;;;;11.20;6.57;;;;;;;12.84;100.00;100736.78;5022915;28;20856;-82
2022/09/25 01:42:42;;;;;;;11.90;6.40;;;;;;;12.90;100.00;100742.88;5036587;28;20505;-83
2022/09/25 01:45:16;;;;;;;9.87;6.27;;;;;;;12.85;100.00;100741.88;5032441;28;20563;-82
2022/09/25 01:47:47;;;;;;;13.40;6.87;;;;;;;12.91;100.00;100736.31;5024157;28;20930;-82
2022/09/25 01:50:20;;;;;;;15.30;7.10;;;;;;;12.86;100.00;100740.78;5040586;28;20479;-82
2022/09/25 01:52:51;;;;;;;12.37;7.13;;;;;;;12.86;100.00;100735.34;5037936;28;20455;-83
2022/09/25 01:55:23;;;;;;;10.83;5.93;;;;;;;12.89;100.00;100733.91;5038005;28;20440;-79
2022/09/25 01:57:55;;;;;;;10.80;6.20;;;;;;;12.88;100.00;100733.13;5041879;28;21735;-82
2022/09/25 02:00:25;;;;;;;11.80;6.70;;;;;;;12.86;100.00;100721.75;5039359;28;20487;-81
2022/09/25 02:02:55;;;;;;;11.17;6.93;;;;;;;12.86;100.00;100729.91;5036336;28;20451;-82
2022/09/25 02:05:27;;;;;;;12.10;6.47;;;;;;;12.88;100.00;100730.41;5034884;28;20494;-82
2022/09/25 02:07:58;;;;;;;10.63;6.23;;;;;;;12.90;100.00;100732.00;5053643;28;20472;-82
2022/09/25 02:10:32;;;;;;;11.27;6.70;;;;;;;12.86;100.00;100726.38;5039588;28;22319;-82
2022/09/25 02:13:06;;;;;;;14.30;7.60;;;;;;;12.78;100.00;100730.66;5062757;22;20488;-80
2022/09/25 02:15:36;;;;;;;11.17;6.27;;;;;;;12.80;100.00;100727.63;5099691;28;20429;-80
2022/09/25 02:20:57;;;;;;;14.00;6.50;;;;;;;12.81;100.00;100723.81;5084645;28;20513;-80
2022/09/25 02:23:28;;;;;;;10.87;6.70;;;;;;;12.76;100.00;100722.03;5085822;28;20571;-80
2022/09/25 02:26:01;;;;;;;11.47;6.73;;;;;;;12.71;100.00;100721.34;5076593;28;20473;-81
2022/09/25 02:28:27;;;;;;;11.87;6.30;;;;;;;12.69;100.00;100721.66;5080199;28;20453;-80
2022/09/25 02:30:58;;;;;;;11.50;6.03;;;;;;;12.71;100.00;100726.78;5078698;28;20449;-81
2022/09/25 02:33:26;;;;;;;9.57;5.70;;;;;;;12.68;100.00;100724.69;5057082;28;20461;-80
2022/09/25 02:35:53;;;;;;;12.43;6.57;;;;;;;12.68;100.00;100727.41;5058423;28;20443;-81
2022/09/25 02:38:21;;;;;;;10.47;6.07;;;;;;;12.73;100.00;100730.78;5076935;28;21007;-80
2022/09/25 02:40:52;;;;;;;11.07;6.87;;;;;;;12.73;100.00;100728.06;5084472;28;20440;-80
2022/09/25 02:43:29;;;;;;;14.90;7.83;;;;;;;12.73;100.00;100725.34;5071336;28;20837;-80
2022/09/25 02:46:08;;;;;;;9.77;5.73;;;;;;;12.67;100.00;100723.88;5076902;28;20522;-82
2022/09/25 02:48:43;;;;;;;15.97;7.53;;;;;;;12.65;100.00;100717.16;5077131;28;20481;-81
2022/09/25 02:51:17;;;;;;;10.00;5.90;;;;;;;12.63;100.00;100721.00;5084628;28;20984;-81
2022/09/25 02:53:50;;;;;;;9.40;5.73;;;;;;;12.62;100.00;100724.03;5092551;28;20484;-82
2022/09/25 02:56:25;;;;;;;9.00;6.37;;;;;;;12.57;100.00;100730.41;5093082;28;20463;-80
2022/09/25 02:58:55;;;;;;;11.47;6.10;;;;;;;12.59;100.00;100722.72;5077671;28;20432;-80
2022/09/25 03:01:26;;;;;;;16.23;6.37;;;;;;;12.64;100.00;100727.22;5077380;28;20799;-80
2022/09/25 03:03:57;;;;;;;10.90;5.93;;;;;;;12.65;100.00;100722.59;5077449;28;20457;-80
2022/09/25 03:06:25;;;;;;;13.20;6.67;;;;;;;12.60;100.00;100721.59;5077570;28;20481;-80
2022/09/25 03:08:55;;;;;;;10.90;5.43;;;;;;;12.64;100.00;100727.22;5078196;28;20448;-80
2022/09/25 03:11:25;;;;;;;10.23;5.80;;;;;;;12.67;100.00;100723.88;5077626;28;20433;-80
2022/09/25 03:13:56;;;;;;;10.30;5.23;;;;;;;12.64;100.00;100727.22;5076710;28;20477;-80
2022/09/25 03:16:33;;;;;;;13.07;7.20;;;;;;;12.63;100.00;100725.63;5076833;28;20421;-80
2022/09/25 03:19:00;;;;;;;9.13;5.60;;;;;;;12.63;100.00;100714.75;5076705;28;20465;-80
2022/09/25 03:21:26;;;;;;;13.73;6.70;;;;;;;12.59;100.00;100713.78;5076790;28;20894;-80
2022/09/25 03:23:55;;;;;;;9.80;5.70;;;;;;;12.60;100.00;100715.38;5076440;28;20473;-80
2022/09/25 03:26:22;;;;;;;11.37;6.13;;;;;;;12.55;100.00;100710.88;5076649;28;20528;-80
2022/09/25 03:28:48;;;;;;;14.90;5.80;;;;;;;12.60;100.00;100713.44;5077283;28;20471;-79
2022/09/25 03:31:15;;;;;;;13.00;6.33;;;;;;;12.70;100.00;100704.22;5076704;28;20433;-80
2022/09/25 03:33:43;;;;;;;8.13;5.50;;;;;;;12.73;100.00;100705.53;5076024;28;20457;-80
2022/09/25 03:36:11;;;;;;;10.13;5.70;;;;;;;12.75;100.00;100709.56;5075959;28;20434;-80
2022/09/25 03:38:40;;;;;;;14.17;6.17;;;;;;;12.75;100.00;100704.13;5076369;28;20453;-80
2022/09/25 03:41:08;;;;;;;11.97;6.53;;;;;;;12.71;100.00;100705.06;5075790;28;20464;-81
2022/09/25 03:43:36;;;;;;;10.03;6.30;;;;;;;12.66;100.00;100706.00;5076470;28;20472;-80
2022/09/25 03:46:02;;;;;;;10.53;5.60;;;;;;;12.63;100.00;100704.69;5075897;28;20507;-80
2022/09/25 03:48:29;;;;;;;10.77;5.57;;;;;;;12.62;100.00;100699.56;5070150;28;20469;-80
2022/09/25 03:50:57;;;;;;;12.90;6.80;;;;;;;12.60;100.00;100701.78;5075540;28;20454;-80
2022/09/25 03:53:24;;;;;;;10.20;6.30;;;;;;;12.64;100.00;100700.03;5076366;28;20559;-80
2022/09/25 03:55:50;;;;;;;9.93;6.27;;;;;;;12.56;100.00;100696.16;5075619;28;20485;-80
2022/09/25 03:58:17;;;;;;;12.53;7.10;;;;;;;12.56;100.00;100698.88;5075830;28;20464;-80
2022/09/25 04:00:45;;;;;;;12.07;5.80;;;;;;;12.45;100.00;100696.75;5076022;28;20465;-80
2022/09/25 04:03:12;;;;;;;10.40;5.60;;;;;;;12.39;100.00;100698.78;5077426;28;20500;-80
2022/09/25 04:05:38;;;;;;;16.13;6.50;;;;;;;12.38;100.00;100691.75;5075369;28;21014;-80
2022/09/25 04:08:06;;;;;;;10.87;6.43;;;;;;;12.34;100.00;100693.47;5075342;28;20457;-80
2022/09/25 04:10:37;;;;;;;10.30;5.87;;;;;;;12.35;100.00;100690.47;5067622;28;20515;-80
2022/09/25 04:13:04;;;;;;;9.80;4.73;;;;;;;12.30;100.00;100689.78;5075564;28;20488;-80
2022/09/25 04:15:30;;;;;;;13.80;6.20;;;;;;;12.33;100.00;100695.38;5070371;28;20935;-80
2022/09/25 04:17:57;;;;;;;9.80;5.30;;;;;;;12.34;100.00;100694.28;5057095;28;20468;-80
2022/09/25 04:20:24;;;;;;;12.00;6.27;;;;;;;12.33;100.00;100692.69;5075109;28;20464;-80
2022/09/25 04:22:50;;;;;;;14.50;6.70;;;;;;;12.25;100.00;100692.63;5075296;28;20637;-80
2022/09/25 04:25:20;;;;;;;10.67;5.60;;;;;;;12.23;100.00;100701.09;5075193;28;20450;-80
2022/09/25 04:27:48;;;;;;;12.07;6.83;;;;;;;12.18;100.00;100698.50;5074631;28;21019;-80
2022/09/25 04:30:14;;;;;;;13.10;5.63;;;;;;;12.13;100.00;100701.34;5074872;28;20441;-80
2022/09/25 04:35:26;;;;;;;10.37;5.77;;;;;;;12.08;100.00;100704.16;5073915;28;20452;-80
2022/09/25 04:37:52;;;;;;;8.87;5.97;;;;;;;12.08;100.00;100706.88;5065248;28;20556;-79
2022/09/25 04:40:20;;;;;;;10.07;6.00;;;;;;;12.09;100.00;100713.94;5054498;28;20892;-80
2022/09/25 04:42:47;;;;;;;14.77;6.80;;;;;;;12.10;100.00;100704.66;5059013;28;20469;-80
2022/09/25 04:45:13;;;;;;;15.23;7.03;;;;;;;12.05;100.00;100702.88;5074269;28;20510;-80
2022/09/25 04:47:40;;;;;;;11.20;6.47;;;;;;;12.06;100.00;100703.66;5074237;28;20496;-80
2022/09/25 04:50:07;;;;;;;8.33;5.80;;;;;;;11.95;100.00;100707.72;5074423;28;20444;-79
2022/09/25 04:52:34;;;;;;;10.60;6.03;;;;;;;11.92;100.00;100700.22;5073704;28;21016;-80
2022/09/25 04:55:00;;;;;;;8.70;5.53;;;;;;;11.91;100.00;100704.00;5073829;28;20514;-80
2022/09/25 04:57:28;;;;;;;13.93;7.17;;;;;;;11.93;100.00;100712.66;5069786;28;20473;-82
2022/09/25 04:59:54;;;;;;;9.37;6.23;;;;;;;11.83;100.00;100700.13;5072396;28;20457;-81
2022/09/25 05:02:25;;;;;;;12.97;7.43;;;;;;;11.87;100.00;100703.84;5073848;28;20445;-81
2022/09/25 05:04:52;;;;;;;12.27;6.47;;;;;;;11.87;100.00;100706.56;5074238;28;20441;-81
2022/09/25 05:07:18;;;;;;;12.57;6.70;;;;;;;11.76;100.00;100703.22;5090993;28;20558;-81
2022/09/25 05:09:45;;;;;;;8.50;5.57;;;;;;;11.83;100.00;100702.84;5077541;28;20456;-80
2022/09/25 05:12:11;;;;;;;11.50;6.50;;;;;;;11.81;100.00;100710.44;5074397;28;20543;-81
2022/09/25 05:14:40;;;;;;;14.30;5.90;;;;;;;11.88;100.00;100702.72;5075496;28;20449;-80
2022/09/25 05:17:09;;;;;;;12.40;6.50;;;;;;;11.83;100.00;100702.84;5075079;28;20445;-80
2022/09/25 05:19:36;;;;;;;10.63;6.97;;;;;;;11.78;100.00;100705.66;5074204;28;20966;-80
2022/09/25 05:22:02;;;;;;;10.37;5.70;;;;;;;11.71;100.00;100711.47;5065007;28;20851;-81
2022/09/25 05:24:30;;;;;;;7.60;4.90;;;;;;;11.65;100.00;100718.16;5082458;28;20461;-80
2022/09/25 05:26:58;;;;;;;10.50;5.13;;;;;;;11.56;100.00;100717.25;5065724;28;20488;-80
2022/09/25 05:29:24;;;;;;;10.80;5.70;;;;;;;11.63;100.00;100721.13;5074505;28;20494;-80
2022/09/25 05:31:52;;;;;;;11.23;6.33;;;;;;;11.66;100.00;100717.03;5074615;28;20445;-80
2022/09/25 05:34:19;;;;;;;9.83;6.30;;;;;;;11.68;100.00;100720.22;5074522;28;20468;-80
2022/09/25 05:36:46;;;;;;;9.50;6.43;;;;;;;11.69;100.00;100727.28;5074776;28;20498;-80
2022/09/25 05:39:12;;;;;;;12.20;6.43;;;;;;;11.62;100.00;100724.97;5074357;28;20448;-80
2022/09/25 05:41:39;;;;;;;8.50;5.10;;;;;;;11.66;100.00;100718.94;5074705;28;20778;-80
2022/09/25 05:44:08;;;;;;;11.47;6.60;;;;;;;11.68;100.00;100728.38;5074262;28;20867;-80
2022/09/25 05:46:35;;;;;;;10.13;5.43;;;;;;;11.70;100.00;100725.38;5074777;28;20477;-80
2022/09/25 05:49:03;;;;;;;9.97;6.20;;;;;;;11.72;100.00;100718.50;5073814;28;20453;-80
2022/09/25 05:51:30;;;;;;;14.43;6.10;;;;;;;11.74;100.00;100716.31;5081563;28;20801;-81
2022/09/25 05:53:56;;;;;;;11.93;6.00;;;;;;;11.78;100.00;100721.94;5061063;28;20454;-80
2022/09/25 05:56:24;;;;;;;10.70;6.20;;;;;;;11.84;100.00;100715.31;5054097;28;20446;-80
2022/09/25 05:58:51;;;;;;;11.77;6.30;;;;;;;11.86;100.00;100713.91;5063800;28;20499;-81
2022/09/25 06:01:18;;;;;;;15.83;7.70;;;;;;;11.96;100.00;100712.06;5074284;28;20507;-81
2022/09/25 06:03:44;;;;;;;9.03;5.67;;;;;;;12.04;100.00;100716.72;5074306;28;20461;-80
2022/09/25 06:06:12;;;;;;;12.40;7.33;;;;;;;12.10;100.00;100720.94;5074087;28;20960;-80
2022/09/25 06:08:39;;;;;;;12.57;7.33;;;;;;;12.18;100.00;100720.22;5073767;28;20469;-80
2022/09/25 06:11:06;;;;;;;14.73;7.00;;;;;;;12.20;100.00;100712.56;5073882;28;20453;-80
2022/09/25 06:13:35;;;;;;;12.83;7.33;;;;;;;12.25;100.00;100715.13;5073476;28;20588;-80
2022/09/25 06:16:04;;;;;;;12.07;7.50;;;;;;;12.31;100.00;100719.34;5074384;28;20516;-80
2022/09/25 06:18:31;;;;;;;12.33;7.53;;;;;;;12.34;100.00;100710.56;5076056;28;20579;-80
2022/09/25 06:21:02;;;;;;;11.60;6.60;;;;;;;12.41;100.00;100710.16;5078456;28;20441;-81
2022/09/25 06:23:31;;;;;;;12.23;7.03;;;;;;;12.53;100.00;100715.81;5074894;28;20473;-81
2022/09/25 06:26:01;;;;;;;11.60;7.70;;;;;;;12.63;100.00;100720.19;5077936;28;20456;-81
2022/09/25 06:28:28;;;;;;;14.60;7.27;;;;;;;12.69;100.00;100729.00;5063296;28;20484;-81
2022/09/25 06:30:54;;;;;;;12.93;8.10;;;;;;;12.83;100.00;100719.63;5077526;28;21007;-81
2022/09/25 06:33:21;;;;;;;13.97;8.43;;;;;;;12.93;100.00;100720.50;5077614;28;20839;-81
2022/09/25 06:35:49;;;;;;;11.93;6.57;;;;;;;12.99;100.00;100722.75;5077876;28;20446;-81
2022/09/25 06:38:17;;;;;;;12.00;6.80;;;;;;;12.95;100.00;100719.06;5077482;28;20463;-82
2022/09/25 06:40:45;;;;;;;10.90;6.93;;;;;;;12.96;100.00;100720.66;5077677;28;20798;-81
2022/09/25 06:43:13;;;;;;;14.60;7.37;;;;;;;12.89;100.00;100725.75;5087062;28;20546;-82
2022/09/25 06:45:40;;;;;;;10.47;6.13;;;;;;;12.88;100.00;100716.81;5083083;28;20464;-81
2022/09/25 06:48:09;;;;;;;9.80;5.63;;;;;;;12.93;100.00;100725.94;5076464;28;20488;-81
2022/09/25 06:50:40;;;;;;;12.63;7.00;;;;;;;13.03;100.00;100714.78;5077011;28;20441;-81
2022/09/25 06:53:07;;;;;;;12.17;6.73;;;;;;;13.10;100.00;100724.09;5077498;28;20980;-81
2022/09/25 06:55:33;;;;;;;11.67;6.93;;;;;;;13.21;100.00;100716.44;5077333;28;20441;-81
2022/09/25 06:58:02;;;;;;;11.40;7.33;;;;;;;13.34;100.00;100731.06;5077046;28;20449;-83
2022/09/25 07:00:28;;;;;;;10.57;6.40;;;;;;;13.40;100.00;100726.28;5076849;28;20452;-81
2022/09/25 07:05:41;;;;;;;11.73;6.20;;;;;;;13.46;100.00;100719.56;5058181;28;20426;-80
2022/09/25 07:08:07;;;;;;;9.67;5.47;;;;;;;13.49;100.00;100725.19;5056677;28;20485;-81
2022/09/25 07:10:34;;;;;;;15.40;6.70;;;;;;;13.51;100.00;100727.59;5071756;28;20481;-81
2022/09/25 07:13:03;;;;;;;9.80;6.10;;;;;;;13.57;100.00;100731.75;5076546;28;20476;-81
2022/09/25 07:15:30;;;;;;;13.13;6.67;;;;;;;13.56;100.00;100719.28;5076230;28;20451;-82
2022/09/25 07:17:56;;;;;;;12.97;6.70;;;;;;;13.58;100.00;100717.03;5076134;28;20461;-82
2022/09/25 07:20:23;;;;;;;15.77;6.67;;;;;;;13.58;100.00;100717.84;5076799;28;20437;-83
2022/09/25 07:22:49;;;;;;;10.07;6.30;;;;;;;13.61;100.00;100708.25;5076761;28;20836;-84
2022/09/25 07:25:16;;;;;;;10.17;6.43;;;;;;;13.62;100.00;100705.19;5076443;28;20465;-80
2022/09/25 07:27:42;;;;;;;11.90;6.70;;;;;;;13.64;100.00;100713.06;5076633;28;20497;-81
2022/09/25 07:30:11;;;;;;;11.17;5.20;;;;;;;13.65;100.00;100711.13;5064011;28;20462;-81
2022/09/25 07:32:37;;;;;;;10.10;6.57;;;;;;;13.66;100.00;100715.44;5059620;28;20469;-81
2022/09/25 07:35:04;;;;;;;15.23;6.87;;;;;;;13.67;100.00;100712.41;5075438;28;20465;-82
2022/09/25 07:37:31;;;;;;;11.43;6.00;;;;;;;13.72;100.00;100714.97;5057653;28;20438;-81
2022/09/25 07:39:57;;;;;;;12.00;6.10;;;;;;;13.77;100.00;100717.56;5075281;28;20461;-81
2022/09/25 07:42:24;;;;;;;9.90;5.43;;;;;;;13.81;100.00;100714.97;5078078;28;20957;-81
2022/09/25 07:44:50;;;;;;;12.73;7.53;;;;;;;13.83;100.00;100718.19;5096205;28;20918;-81
2022/09/25 07:47:18;;;;;;;14.10;7.10;;;;;;;13.86;100.00;100723.00;5075850;28;20515;-81
2022/09/25 07:49:45;;;;;;;11.97;6.23;;;;;;;13.86;100.00;100723.00;5076094;28;20457;-81
2022/09/25 07:52:12;;;;;;;12.00;7.00;;;;;;;13.87;100.00;100725.41;5076090;28;20516;-81
2022/09/25 07:54:38;;;;;;;11.23;5.97;;;;;;;13.94;100.00;100718.66;5075338;28;20438;-81
2022/09/25 07:57:05;;;;;;;11.80;6.40;;;;;;;13.97;100.00;100721.56;5076131;28;20446;-80
2022/09/25 07:59:31;;;;;;;11.40;6.37;;;;;;;14.00;100.00;100715.47;5076048;28;20433;-80
2022/09/25 08:01:58;;;;;;;16.30;6.30;;;;;;;14.08;100.00;100713.88;5075804;28;20453;-80
2022/09/25 08:04:25;;;;;;;9.40;6.10;;;;;;;14.10;100.00;100717.06;5075504;28;20485;-80
2022/09/25 08:06:52;;;;;;;11.47;6.40;;;;;;;14.09;100.00;100705.38;5074821;28;20957;-81
2022/09/25 08:09:18;;;;;;;9.83;6.50;;;;;;;14.11;100.00;100705.84;5074976;28;20966;-81
2022/09/25 08:11:45;;;;;;;12.63;8.10;;;;;;;14.18;100.00;100710.03;5077648;28;20948;-81
2022/09/25 08:14:13;;;;;;;13.10;8.00;;;;;;;14.21;99.83;100706.63;5092736;28;20854;-81
2022/09/25 08:16:39;;;;;;;13.13;7.83;;;;;;;14.21;98.28;100702.00;5075248;28;20453;-80
2022/09/25 08:19:06;;;;;;;13.80;8.00;;;;;;;14.22;97.09;100702.81;5075634;28;20528;-80
2022/09/25 08:21:34;;;;;;;13.70;7.50;;;;;;;14.33;97.46;100699.41;5075496;28;20445;-81
2022/09/25 08:24:01;;;;;;;13.53;7.80;;;;;;;14.54;98.09;100705.00;5075352;28;20462;-82
2022/09/25 08:26:27;;;;;;;16.00;8.63;;;;;;;14.84;98.98;100707.81;5075376;28;20442;-81
2022/09/25 08:28:55;;;;;;;10.63;6.50;;;;;;;15.10;97.49;100710.44;5067280;28;20489;-81
2022/09/25 08:31:21;;;;;;;13.33;8.13;;;;;;;15.33;97.15;100705.50;5074190;28;20457;-81
2022/09/25 08:33:49;;;;;;;13.00;7.53;;;;;;;15.52;95.51;100711.31;5064243;28;20555;-82
2022/09/25 08:36:16;;;;;;;14.97;7.63;;;;;;;15.70;93.11;100706.56;5057213;28;20457;-81
2022/09/25 08:38:45;;;;;;;9.33;5.73;;;;;;;15.94;91.95;100707.81;5081071;28;20457;-82
2022/09/25 08:41:17;;;;;;;14.27;8.20;;;;;;;16.14;91.11;100705.06;5073546;28;20468;-81
2022/09/25 08:43:52;;;;;;;13.13;7.70;;;;;;;16.17;89.27;100698.16;5076849;28;20489;-80
2022/09/25 08:49:09;;;;;;;12.13;6.77;;;;;;;16.35;87.02;100704.25;5074580;28;20472;-81
2022/09/25 08:51:39;;;;;;;16.50;6.90;;;;;;;16.51;87.96;100704.41;5075060;28;20528;-81
2022/09/25 08:54:07;;;;;;;10.10;5.63;;;;;;;16.51;87.10;100704.41;5066249;28;20507;-81
2022/09/25 08:56:35;;;;;;;14.13;5.90;;;;;;;16.60;85.60;100705.94;5075526;28;20445;-81
2022/09/25 08:59:08;;;;;;;11.27;6.07;;;;;;;16.68;86.44;100706.94;5074918;28;20823;-81
2022/09/25 09:01:43;;;;;;;11.27;5.87;;;;;;;16.69;83.94;100703.09;5079883;28;20857;-81
2022/09/25 09:04:19;;;;;;;8.30;4.10;;;;;;;16.64;82.36;100697.81;5078403;28;20806;-81
2022/09/25 09:06:48;;;;;;;9.83;5.37;;;;;;;16.66;81.57;100706.50;5080951;28;20445;-80
2022/09/25 09:09:21;;;;;;;11.80;6.40;;;;;;;16.66;81.53;100698.28;5073349;28;20494;-80
2022/09/25 09:11:52;;;;;;;12.07;5.57;;;;;;;16.62;80.62;100697.38;5070109;28;20449;-81
2022/09/25 09:14:22;;;;;;;10.93;5.40;;;;;;;16.55;80.29;100686.97;5082644;28;20488;-80
2022/09/25 09:16:55;;;;;;;12.50;5.23;;;;;;;16.47;80.45;100695.28;5081289;28;20553;-81
2022/09/25 09:19:21;;;;;;;12.40;6.43;;;;;;;16.38;79.51;100693.44;5066360;28;20454;-81
2022/09/25 09:21:54;;;;;;;11.07;6.73;;;;;;;16.36;81.04;100684.78;5084183;28;20960;-81
2022/09/25 09:24:31;;;;;;;13.27;7.40;;;;;;;16.26;82.78;100679.75;5082495;28;20477;-80
2022/09/25 09:27:13;;;;;;;10.17;5.67;;;;;;;16.28;83.11;100680.19;5083839;28;20449;-80
2022/09/25 09:29:51;;;;;;;9.20;5.07;;;;;;;16.37;83.87;100685.56;5082490;28;20472;-80
2022/09/25 09:32:38;;;;;;;10.57;5.87;;;;;;;16.44;81.41;100682.28;5083354;28;20463;-80
2022/09/25 09:35:17;;;;;;;10.63;6.10;;;;;;;16.49;80.37;100690.28;5080053;28;20970;-81
2022/09/25 09:37:55;;;;;;;11.53;6.50;;;;;;;16.52;79.26;100682.19;5082188;28;20479;-80
2022/09/25 09:40:36;;;;;;;9.47;5.60;;;;;;;16.58;76.79;100685.50;5064289;28;20477;-79
2022/09/25 09:43:13;;;;;;;9.00;5.30;;;;;;;16.61;76.76;100684.84;5078658;28;20473;-80
2022/09/25 09:45:51;;;;;;;8.50;5.80;;;;;;;16.57;76.57;100678.44;5083519;28;20491;-79
2022/09/25 09:48:27;;;;;;;11.40;6.40;;;;;;;16.58;77.58;100675.38;5083921;28;20488;-81
2022/09/25 09:51:00;;;;;;;9.53;5.23;;;;;;;16.48;77.86;100672.28;5079972;28;20532;-80
2022/09/25 09:53:33;;;;;;;9.97;5.87;;;;;;;16.63;76.96;100672.41;5082647;28;20485;-81
2022/09/25 09:56:05;;;;;;;9.93;4.73;;;;;;;16.82;77.54;100668.34;5082907;28;20476;-80
2022/09/25 09:58:40;;;;;;;10.20;5.03;;;;;;;16.98;79.00;100673.97;5085481;28;20453;-79
2022/09/25 10:01:07;;;;;;;9.00;5.20;;;;;;;17.00;77.58;100669.75;5074074;28;20463;-79
2022/09/25 10:03:38;;;;;;;12.73;6.00;;;;;;;17.02;78.28;100661.19;5084687;28;20473;-80
2022/09/25 10:06:09;;;;;;;10.73;6.43;;;;;;;17.02;77.06;100669.41;5086154;28;20444;-79
2022/09/25 10:08:36;;;;;;;11.03;6.37;;;;;;;16.93;76.49;100653.09;5087207;28;20841;-80
2022/09/25 10:11:14;;;;;;;9.90;5.60;;;;;;;16.90;78.00;100659.25;5086319;28;20457;-80
2022/09/25 10:13:43;;;;;;;11.77;5.33;;;;;;;16.89;79.96;100658.44;5084632;28;20480;-79
2022/09/25 10:16:14;;;;;;;13.43;6.03;;;;;;;16.95;80.71;100663.69;5082819;28;20473;-80
2022/09/25 10:18:45;;;;;;;11.27;5.77;;;;;;;17.06;80.28;100664.84;5088601;28;20451;-78
2022/09/25 10:21:21;;;;;;;11.73;6.07;;;;;;;17.12;76.71;100664.25;5084187;28;20462;-79
2022/09/25 10:23:49;;;;;;;9.00;5.60;;;;;;;17.23;76.41;100661.06;5080737;28;20489;-80
2022/09/25 10:26:29;;;;;;;17.30;6.33;;;;;;;17.30;77.22;100662.06;5077579;28;20826;-79
2022/09/25 10:28:57;;;;;;;9.43;5.63;;;;;;;17.40;76.37;100658.88;5060804;28;20468;-79
2022/09/25 10:31:27;;;;;;;10.53;6.00;;;;;;;17.43;74.96;100654.63;5075431;28;20457;-80
2022/09/25 10:34:05;;;;;;;11.60;4.80;;;;;;;17.52;74.91;100658.03;5080374;28;20473;-79
2022/09/25 10:36:39;;;;;;;7.50;4.30;;;;;;;17.63;76.95;100652.88;5062766;28;20831;-80
2022/09/25 10:39:24;;;;;;;9.80;4.80;;;;;;;17.82;74.79;100655.00;5073000;28;20441;-79
2022/09/25 10:41:52;;;;;;;9.50;5.10;;;;;;;17.78;75.62;100654.91;5062441;28;20430;-79
2022/09/25 10:44:28;;;;;;;7.23;4.30;;;;;;;18.09;73.98;100658.91;5080768;28;20499;-79
2022/09/25 10:52:49;;;;;;;6.90;3.80;;;;;;;19.01;70.82;100646.78;5066395;28;20457;-81
2022/09/25 10:55:24;;;;;;;7.03;3.97;;;;;;;19.22;71.38;100654.72;5078272;28;20526;-79
2022/09/25 10:57:57;;;;;;;7.27;4.40;;;;;;;19.31;68.46;100663.56;5078949;28;20468;-79
2022/09/25 11:00:25;;;;;;;14.17;5.07;;;;;;;19.30;67.30;100663.88;5078768;28;20814;-78
2022/09/25 11:02:55;;;;;;;9.17;4.10;;;;;;;19.32;65.85;100664.34;5084660;28;20482;-78
2022/09/25 11:05:26;;;;;;;7.90;4.07;;;;;;;19.34;66.56;100668.31;5080175;28;20449;-80
2022/09/25 11:07:55;;;;;;;6.10;3.20;;;;;;;19.49;66.86;100663.16;5081996;28;20469;-78
2022/09/25 11:10:27;;;;;;;7.17;3.37;;;;;;;19.55;67.34;100657.00;5080192;28;20452;-80
2022/09/25 11:12:57;;;;;;;7.47;4.60;;;;;;;19.54;67.39;100660.13;5088280;28;20481;-78
2022/09/25 11:15:26;;;;;;;10.57;4.60;;;;;;;19.62;67.76;100659.16;5075717;28;20456;-77
2022/09/25 11:17:54;;;;;;;6.57;3.60;;;;;;;20.08;69.10;100640.03;5075173;28;20511;-77
2022/09/25 11:20:28;;;;;;;6.87;3.73;;;;;;;20.85;65.15;100653.59;5074667;28;20822;-79
2022/09/25 11:23:05;;;;;;;7.17;3.50;;;;;;;21.95;63.57;100647.22;5075584;28;20509;-78
2022/09/25 11:25:40;;;;;;;10.07;4.10;;;;;;;23.28;55.33;100652.78;5071053;28;20467;-77
2022/09/25 11:28:16;;;;;;;7.43;3.43;;;;;;;24.03;52.20;100655.91;5075802;28;20480;-80
2022/09/25 11:30:47;;;;;;;7.60;3.20;;;;;;;25.24;49.31;100653.25;5078369;28;20457;-80
2022/09/25 11:33:23;;;;;;;4.47;2.33;;;;;;;25.99;47.40;100649.44;5078255;28;20520;-78
2022/09/25 11:35:55;;;;;;;6.00;3.40;;;;;;;26.39;47.66;100651.56;5076996;28;20493;-80
2022/09/25 11:41:28;;;;;;;7.70;3.47;;;;;;;26.72;45.71;100649.34;5065489;28;20432;-79
2022/09/25 11:44:06;;;;;;;6.60;2.90;;;;;;;27.22;43.83;100637.75;5076532;28;20818;-82
2022/09/25 11:46:41;;;;;;;5.80;2.87;;;;;;;27.84;43.12;100645.00;5077107;28;20461;-79
2022/09/25 11:49:16;;;;;;;7.33;3.00;;;;;;;27.29;42.71;100643.25;5069191;28;20474;-78